Time;durP1;ratioP1;P1;durP2;ratioP2;P2;SDS_P1;SDS_P2;PMS_P1;PMS_P2;Temp;Humidity;BMP_temperature;BMP_pressure;BME280_temperature;BME280_humidity;BME280_pressure;Samples;Min_cycle;Max_cycle;Signal;HPM_P1;HPM_P2
2021/11/15 00:01:29;;;;;;;;;;;;;;;;;;5053604;28;19912;-75
2021/11/15 00:03:55;;;;;;;;;;;;;;;;;;5053759;28;20362;-75
2021/11/15 00:06:20;;;;;;;;;;;;;;;;;;5053700;28;19919;-75
2021/11/15 00:08:46;;;;;;;;;;;;;;;;;;5052576;28;19916;-75
2021/11/15 00:11:12;;;;;;;;;;;;;;;;;;5053658;28;19913;-75
2021/11/15 00:13:37;;;;;;;;;;;;;;;;;;5053621;28;20358;-75
2021/11/15 00:16:03;;;;;;;;;;;;;;;;;;5053433;28;19928;-75
2021/11/15 00:18:28;;;;;;;;;;;;;;;;;;5053455;28;19935;-75
2021/11/15 00:20:54;;;;;;;;;;;;;;;;;;5053605;28;19915;-75
2021/11/15 00:23:19;;;;;;;;;;;;;;;;;;5053642;28;19919;-75
2021/11/15 00:25:44;;;;;;;;;;;;;;;;;;5053625;28;19920;-75
2021/11/15 00:28:10;;;;;;;;;;;;;;;;;;5056962;28;20426;-75
2021/11/15 00:30:35;;;;;;;;;;;;;;;;;;5057353;28;19920;-75
2021/11/15 00:33:00;;;;;;;;;;;;;;;;;;5057966;28;20152;-75
2021/11/15 00:35:26;;;;;;;;;;;;;;;;;;5057285;28;19920;-75
2021/11/15 00:37:51;;;;;;;;;;;;;;;;;;5057697;28;20007;-75
2021/11/15 00:40:17;;;;;;;;;;;;;;;;;;5057518;28;19912;-75
2021/11/15 00:42:42;;;;;;;;;;;;;;;;;;5057611;28;19959;-75
2021/11/15 00:45:08;;;;;;;;;;;;;;;;;;5057348;28;19916;-75
2021/11/15 00:47:34;;;;;;;;;;;;;;;;;;5056272;28;19947;-75
2021/11/15 00:50:02;;;;;;;;;;;;;;;;;;5057549;28;19913;-75
2021/11/15 00:52:28;;;;;;;;;;;;;;;;;;5055811;28;19912;-75
2021/11/15 00:54:53;;;;;;;;;;;;;;;;;;5056864;28;19924;-75
2021/11/15 00:57:18;;;;;;;;;;;;;;;;;;5057105;28;19912;-75
2021/11/15 00:59:44;;;;;;;;;;;;;;;;;;5057176;28;19912;-75
2021/11/15 01:02:09;;;;;;;;;;;;;;;;;;5056932;28;19917;-75
2021/11/15 01:04:35;;;;;;;;;;;;;;;;;;5056956;28;19913;-75
2021/11/15 01:07:01;;;;;;;;;;;;;;;;;;5057310;28;20264;-75
2021/11/15 01:09:27;;;;;;;;;;;;;;;;;;5056523;28;19919;-75
2021/11/15 01:11:53;;;;;;;;;;;;;;;;;;5057079;28;19959;-75
2021/11/15 01:14:20;;;;;;;;;;;;;;;;;;5056746;28;19917;-75
2021/11/15 01:16:46;;;;;;;;;;;;;;;;;;5056856;28;19908;-75
2021/11/15 01:19:12;;;;;;;;;;;;;;;;;;5056610;28;19912;-75
2021/11/15 01:21:37;;;;;;;;;;;;;;;;;;5056717;28;19921;-75
2021/11/15 01:24:03;;;;;;;;;;;;;;;;;;5056539;28;20030;-75
2021/11/15 01:26:28;;;;;;;;;;;;;;;;;;5056806;28;19912;-75
2021/11/15 01:28:54;;;;;;;;;;;;;;;;;;5056598;28;20278;-75
2021/11/15 01:31:20;;;;;;;;;;;;;;;;;;5056510;28;20003;-75
2021/11/15 01:33:45;;;;;;;;;;;;;;;;;;5056625;28;19913;-75
2021/11/15 01:36:11;;;;;;;;;;;;;;;;;;5056684;28;19920;-75
2021/11/15 01:38:36;;;;;;;;;;;;;;;;;;5056241;28;19913;-75
2021/11/15 01:41:03;;;;;;;;;;;;;;;;;;5056422;28;19958;-75
2021/11/15 01:43:28;;;;;;;;;;;;;;;;;;5055692;28;19917;-76
2021/11/15 01:45:54;;;;;;;;;;;;;;;;;;5056320;28;19923;-75
2021/11/15 01:48:19;;;;;;;;;;;;;;;;;;5056157;28;19913;-75
2021/11/15 01:50:45;;;;;;;;;;;;;;;;;;5056081;28;20003;-75
2021/11/15 01:53:12;;;;;;;;;;;;;;;;;;5055702;28;19920;-75
2021/11/15 01:55:38;;;;;;;;;;;;;;;;;;5056104;28;20031;-75
2021/11/15 01:58:08;;;;;;;;;;;;;;;;;;5056131;28;19919;-75
2021/11/15 02:00:35;;;;;;;;;;;;;;;;;;5055977;28;20011;-75
2021/11/15 02:03:02;;;;;;;;;;;;;;;;;;5055920;28;20011;-75
2021/11/15 02:05:27;;;;;;;;;;;;;;;;;;5056191;28;19919;-75
2021/11/15 02:07:53;;;;;;;;;;;;;;;;;;5056056;28;19912;-75
2021/11/15 02:10:18;;;;;;;;;;;;;;;;;;5056030;28;20407;-76
2021/11/15 02:12:44;;;;;;;;;;;;;;;;;;5055389;28;20347;-75
2021/11/15 02:15:11;;;;;;;;;;;;;;;;;;5055910;28;20258;-75
2021/11/15 02:17:36;;;;;;;;;;;;;;;;;;5055847;28;20282;-75
2021/11/15 02:20:04;;;;;;;;;;;;;;;;;;5055789;28;19920;-75
2021/11/15 02:22:29;;;;;;;;;;;;;;;;;;5055492;28;19920;-75
2021/11/15 02:24:54;;;;;;;;;;;;;;;;;;5055648;28;20350;-75
2021/11/15 02:27:20;;;;;;;;;;;;;;;;;;5055571;28;19913;-75
2021/11/15 02:29:45;;;;;;;;;;;;;;;;;;5055166;28;19912;-75
2021/11/15 02:32:10;;;;;;;;;;;;;;;;;;5055620;28;19912;-75
2021/11/15 02:34:36;;;;;;;;;;;;;;;;;;5055363;28;19920;-75
2021/11/15 02:37:01;;;;;;;;;;;;;;;;;;5055350;28;19948;-75
2021/11/15 02:39:28;;;;;;;;;;;;;;;;;;5055081;28;20377;-75
2021/11/15 02:41:53;;;;;;;;;;;;;;;;;;5055071;28;19916;-75
2021/11/15 02:44:19;;;;;;;;;;;;;;;;;;5054973;28;19917;-75
2021/11/15 02:46:44;;;;;;;;;;;;;;;;;;5055301;28;19966;-75
2021/11/15 02:49:09;;;;;;;;;;;;;;;;;;5054343;28;20262;-75
2021/11/15 02:51:35;;;;;;;;;;;;;;;;;;5055017;28;19913;-75
2021/11/15 02:54:00;;;;;;;;;;;;;;;;;;5054712;28;20439;-75
2021/11/15 02:56:26;;;;;;;;;;;;;;;;;;5054951;28;19917;-75
2021/11/15 02:58:51;;;;;;;;;;;;;;;;;;5054767;28;19919;-75
2021/11/15 03:01:17;;;;;;;;;;;;;;;;;;5054679;28;20269;-75
2021/11/15 03:03:43;;;;;;;;;;;;;;;;;;5054944;28;19913;-75
2021/11/15 03:06:09;;;;;;;;;;;;;;;;;;5053748;28;19920;-75
2021/11/15 03:08:34;;;;;;;;;;;;;;;;;;5054777;28;19916;-75
2021/11/15 03:11:02;;;;;;;;;;;;;;;;;;5054308;28;19912;-75
2021/11/15 03:13:32;;;;;;;;;;;;;;;;;;5054500;28;20491;-75
2021/11/15 03:15:59;;;;;;;;;;;;;;;;;;5054420;28;20424;-75
2021/11/15 03:18:25;;;;;;;;;;;;;;;;;;5054481;28;19920;-74
2021/11/15 03:20:55;;;;;;;;;;;;;;;;;;5054483;28;19912;-78
2021/11/15 03:23:22;;;;;;;;;;;;;;;;;;5054195;28;19913;-75
2021/11/15 03:25:48;;;;;;;;;;;;;;;;;;5053932;28;20397;-75
2021/11/15 03:28:16;;;;;;;;;;;;;;;;;;5054163;28;19916;-75
2021/11/15 03:30:42;;;;;;;;;;;;;;;;;;5054307;28;19918;-75
2021/11/15 03:33:08;;;;;;;;;;;;;;;;;;5054045;28;19916;-76
2021/11/15 03:35:33;;;;;;;;;;;;;;;;;;5054167;28;19962;-75
2021/11/15 03:37:58;;;;;;;;;;;;;;;;;;5054176;28;19913;-75
2021/11/15 03:40:25;;;;;;;;;;;;;;;;;;5054022;28;20015;-75
2021/11/15 03:42:52;;;;;;;;;;;;;;;;;;5053970;28;19913;-76
2021/11/15 03:45:18;;;;;;;;;;;;;;;;;;5053917;28;19919;-76
2021/11/15 03:47:44;;;;;;;;;;;;;;;;;;5054073;28;19912;-75
2021/11/15 03:50:09;;;;;;;;;;;;;;;;;;5053999;28;19940;-75
2021/11/15 03:52:35;;;;;;;;;;;;;;;;;;5052685;28;20286;-76
2021/11/15 03:55:00;;;;;;;;;;;;;;;;;;5053468;28;19960;-75
2021/11/15 03:57:26;;;;;;;;;;;;;;;;;;5053828;28;19913;-76
2021/11/15 03:59:51;;;;;;;;;;;;;;;;;;5053911;28;19913;-76
2021/11/15 04:02:18;;;;;;;;;;;;;;;;;;5052599;28;19912;-75
2021/11/15 04:04:53;;;;;;;;;;;;;;;;;;5053408;28;19919;-75
2021/11/15 04:07:27;;;;;;;;;;;;;;;;;;5053407;28;19966;-75
2021/11/15 04:09:53;;;;;;;;;;;;;;;;;;5052480;28;19919;-75
2021/11/15 04:12:19;;;;;;;;;;;;;;;;;;5052471;28;19912;-75
2021/11/15 04:14:44;;;;;;;;;;;;;;;;;;5053547;28;19917;-75
2021/11/15 04:17:09;;;;;;;;;;;;;;;;;;5052556;28;19913;-75
2021/11/15 04:19:35;;;;;;;;;;;;;;;;;;5053783;28;20436;-75
2021/11/15 04:22:00;;;;;;;;;;;;;;;;;;5053561;28;20370;-75
2021/11/15 04:24:26;;;;;;;;;;;;;;;;;;5053611;28;19930;-75
2021/11/15 04:26:51;;;;;;;;;;;;;;;;;;5053412;28;19966;-75
2021/11/15 04:29:16;;;;;;;;;;;;;;;;;;5053575;28;19912;-75
2021/11/15 04:31:42;;;;;;;;;;;;;;;;;;5052515;28;20014;-76
2021/11/15 04:34:07;;;;;;;;;;;;;;;;;;5053425;28;19970;-75
2021/11/15 04:36:33;;;;;;;;;;;;;;;;;;5053303;28;19952;-75
2021/11/15 04:38:59;;;;;;;;;;;;;;;;;;5053136;28;19913;-75
2021/11/15 04:41:24;;;;;;;;;;;;;;;;;;5053475;28;19924;-75
2021/11/15 04:43:49;;;;;;;;;;;;;;;;;;5053053;28;20386;-75
2021/11/15 04:46:15;;;;;;;;;;;;;;;;;;5053619;28;20366;-75
2021/11/15 04:48:40;;;;;;;;;;;;;;;;;;5053313;28;19916;-75
2021/11/15 04:51:05;;;;;;;;;;;;;;;;;;5053410;28;19924;-75
2021/11/15 04:53:31;;;;;;;;;;;;;;;;;;5053193;28;19908;-75
2021/11/15 04:55:56;;;;;;;;;;;;;;;;;;5053035;28;20278;-75
2021/11/15 04:58:21;;;;;;;;;;;;;;;;;;5053277;28;20405;-75
2021/11/15 05:00:47;;;;;;;;;;;;;;;;;;5053266;28;20333;-75
2021/11/15 05:03:13;;;;;;;;;;;;;;;;;;5053145;28;19913;-75
2021/11/15 05:05:39;;;;;;;;;;;;;;;;;;5053093;28;19912;-75
2021/11/15 05:08:04;;;;;;;;;;;;;;;;;;5053152;28;20293;-75
2021/11/15 05:10:30;;;;;;;;;;;;;;;;;;5053230;28;19927;-75
2021/11/15 05:12:56;;;;;;;;;;;;;;;;;;5054403;28;19912;-75
2021/11/15 05:15:21;;;;;;;;;;;;;;;;;;5057066;28;20004;-75
2021/11/15 05:17:48;;;;;;;;;;;;;;;;;;5055532;28;20011;-75
2021/11/15 05:20:15;;;;;;;;;;;;;;;;;;5056942;28;20372;-75
2021/11/15 05:22:40;;;;;;;;;;;;;;;;;;5056922;28;20369;-75
2021/11/15 05:25:06;;;;;;;;;;;;;;;;;;5056778;28;19917;-75
2021/11/15 05:27:31;;;;;;;;;;;;;;;;;;5057046;28;19919;-76
2021/11/15 05:29:57;;;;;;;;;;;;;;;;;;5056951;28;20274;-75
2021/11/15 05:32:23;;;;;;;;;;;;;;;;;;5056697;28;19920;-75
2021/11/15 05:34:48;;;;;;;;;;;;;;;;;;5056310;28;20363;-75
2021/11/15 05:37:14;;;;;;;;;;;;;;;;;;5056672;28;19913;-75
2021/11/15 05:39:40;;;;;;;;;;;;;;;;;;5056431;28;20396;-76
2021/11/15 05:42:06;;;;;;;;;;;;;;;;;;5056706;28;19917;-75
2021/11/15 05:44:31;;;;;;;;;;;;;;;;;;5056248;28;19917;-76
2021/11/15 05:46:56;;;;;;;;;;;;;;;;;;5056656;28;20007;-76
2021/11/15 05:49:22;;;;;;;;;;;;;;;;;;5055589;28;19959;-75
2021/11/15 05:51:47;;;;;;;;;;;;;;;;;;5056161;28;19935;-75
2021/11/15 05:54:12;;;;;;;;;;;;;;;;;;5056016;28;19917;-75
2021/11/15 05:56:38;;;;;;;;;;;;;;;;;;5056434;28;20248;-75
2021/11/15 05:59:03;;;;;;;;;;;;;;;;;;5056569;28;19912;-75
2021/11/15 06:01:28;;;;;;;;;;;;;;;;;;5056324;28;19913;-75
2021/11/15 06:03:54;;;;;;;;;;;;;;;;;;5056309;28;19956;-75
2021/11/15 06:06:19;;;;;;;;;;;;;;;;;;5056311;28;19916;-75
2021/11/15 06:08:44;;;;;;;;;;;;;;;;;;5056028;28;19912;-75
2021/11/15 06:11:09;;;;;;;;;;;;;;;;;;5056075;28;19935;-75
2021/11/15 06:13:35;;;;;;;;;;;;;;;;;;5056202;28;20416;-75
2021/11/15 06:16:00;;;;;;;;;;;;;;;;;;5055989;28;19916;-75
2021/11/15 06:18:26;;;;;;;;;;;;;;;;;;5055540;28;19939;-75
2021/11/15 06:20:51;;;;;;;;;;;;;;;;;;5055778;28;19919;-76
2021/11/15 06:23:17;;;;;;;;;;;;;;;;;;5055415;28;19958;-75
2021/11/15 06:25:42;;;;;;;;;;;;;;;;;;5054708;28;20377;-75
2021/11/15 06:28:07;;;;;;;;;;;;;;;;;;5055747;28;20008;-75
2021/11/15 06:30:33;;;;;;;;;;;;;;;;;;5055351;28;19980;-76
2021/11/15 06:32:58;;;;;;;;;;;;;;;;;;5055651;28;20358;-75
2021/11/15 06:35:27;;;;;;;;;;;;;;;;;;5055260;28;20417;-75
2021/11/15 06:37:52;;;;;;;;;;;;;;;;;;5054311;28;19955;-75
2021/11/15 06:40:18;;;;;;;;;;;;;;;;;;5055215;28;19956;-75
2021/11/15 06:42:43;;;;;;;;;;;;;;;;;;5055391;28;20290;-75
2021/11/15 06:45:09;;;;;;;;;;;;;;;;;;5054972;28;19955;-75
2021/11/15 06:47:35;;;;;;;;;;;;;;;;;;5055360;28;19920;-75
2021/11/15 06:50:01;;;;;;;;;;;;;;;;;;5055183;28;19960;-75
2021/11/15 06:52:27;;;;;;;;;;;;;;;;;;5054043;28;19931;-75
2021/11/15 06:54:53;;;;;;;;;;;;;;;;;;5055004;28;20313;-75
2021/11/15 06:57:18;;;;;;;;;;;;;;;;;;5055342;28;20365;-75
2021/11/15 06:59:44;;;;;;;;;;;;;;;;;;5055186;28;19919;-76
2021/11/15 07:02:09;;;;;;;;;;;;;;;;;;5054976;28;20425;-75
2021/11/15 07:04:35;;;;;;;;;;;;;;;;;;5054699;28;20398;-75
2021/11/15 07:07:00;;;;;;;;;;;;;;;;;;5054853;28;20011;-75
2021/11/15 07:09:25;;;;;;;;;;;;;;;;;;5054607;28;20371;-75
2021/11/15 07:11:51;;;;;;;;;;;;;;;;;;5054524;28;19939;-75
2021/11/15 07:14:17;;;;;;;;;;;;;;;;;;5054630;28;19921;-75
2021/11/15 07:16:42;;;;;;;;;;;;;;;;;;5054788;28;19913;-75
2021/11/15 07:19:08;;;;;;;;;;;;;;;;;;5054363;28;19923;-75
2021/11/15 07:21:33;;;;;;;;;;;;;;;;;;5054769;28;19916;-75
2021/11/15 07:23:59;;;;;;;;;;;;;;;;;;5054181;28;19913;-75
2021/11/15 07:26:24;;;;;;;;;;;;;;;;;;5054645;28;19919;-76
2021/11/15 07:28:50;;;;;;;;;;;;;;;;;;5054302;28;19908;-75
2021/11/15 07:31:15;;;;;;;;;;;;;;;;;;5054363;28;19912;-76
2021/11/15 07:33:41;;;;;;;;;;;;;;;;;;5054145;28;19957;-75
2021/11/15 07:36:07;;;;;;;;;;;;;;;;;;5054055;28;19920;-75
2021/11/15 07:38:32;;;;;;;;;;;;;;;;;;5054183;28;19912;-75
2021/11/15 07:40:57;;;;;;;;;;;;;;;;;;5053960;28;20334;-75
2021/11/15 07:43:22;;;;;;;;;;;;;;;;;;5054164;28;19917;-75
2021/11/15 07:45:48;;;;;;;;;;;;;;;;;;5054132;28;19913;-75
2021/11/15 07:48:13;;;;;;;;;;;;;;;;;;5052679;28;19916;-75
2021/11/15 07:50:39;;;;;;;;;;;;;;;;;;5054006;28;19920;-75
2021/11/15 07:53:04;;;;;;;;;;;;;;;;;;5053547;28;19975;-75
2021/11/15 07:55:30;;;;;;;;;;;;;;;;;;5054000;28;19917;-75
2021/11/15 07:57:56;;;;;;;;;;;;;;;;;;5054079;28;19913;-75
2021/11/15 08:00:23;;;;;;;;;;;;;;;;;;5053649;28;19966;-75
2021/11/15 08:02:49;;;;;;;;;;;;;;;;;;5053198;28;19980;-76
2021/11/15 08:05:15;;;;;;;;;;;;;;;;;;5055065;28;19928;-76
2021/11/15 08:07:40;;;;;;;;;;;;;;;;;;5056271;28;20042;-77
2021/11/15 08:10:08;;;;;;;;;;;;;;;;;;5056468;28;19948;-78
2021/11/15 08:12:35;;;;;;;;;;;;;;;;;;5059854;28;19912;-79
2021/11/15 08:15:02;;;;;;;;;;;;;;;;;;5058876;28;20260;-79
2021/11/15 08:17:27;;;;;;;;;;;;;;;;;;5057914;28;19912;-77
2021/11/15 08:19:53;;;;;;;;;;;;;;;;;;5054863;28;19912;-77
2021/11/15 08:22:19;;;;;;;;;;;;;;;;;;5052244;28;19916;-76
2021/11/15 08:24:44;;;;;;;;;;;;;;;;;;5055911;28;19913;-77
2021/11/15 08:27:09;;;;;;;;;;;;;;;;;;5064651;28;19965;-76
2021/11/15 08:29:35;;;;;;;;;;;;;;;;;;5058562;28;20385;-77
2021/11/15 08:32:06;;;;;;;;;;;;;;;;;;5037924;28;20381;-77
2021/11/15 08:34:32;;;;;;;;;;;;;;;;;;5054337;28;19916;-76
2021/11/15 08:36:57;;;;;;;;;;;;;;;;;;5056246;28;20030;-77
2021/11/15 08:39:25;;;;;;;;;;;;;;;;;;5062810;28;19974;-77
2021/11/15 08:41:53;;;;;;;;;;;;;;;;;;5073013;28;19920;-77
2021/11/15 08:44:21;;;;;;;;;;;;;;;;;;5073069;28;19924;-77
2021/11/15 08:46:50;;;;;;;;;;;;;;;;;;5055160;28;19919;-77
2021/11/15 08:49:17;;;;;;;;;;;;;;;;;;5079478;28;19912;-80
2021/11/15 08:51:44;;;;;;;;;;;;;;;;;;5079695;28;19913;-77
2021/11/15 08:54:14;;;;;;;;;;;;;;;;;;5083003;28;19923;-79
2021/11/15 08:56:40;;;;;;;;;;;;;;;;;;5080816;28;19977;-79
2021/11/15 08:59:05;;;;;;;;;;;;;;;;;;5082229;28;19944;-79
2021/11/15 09:01:31;;;;;;;;;;;;;;;;;;5084367;28;19952;-78
2021/11/15 09:03:56;;;;;;;;;;;;;;;;;;5082520;28;19970;-78
2021/11/15 09:06:22;;;;;;;;;;;;;;;;;;5082127;28;19944;-78
2021/11/15 09:08:48;;;;;;;;;;;;;;;;;;5074128;28;19912;-77
2021/11/15 09:11:14;;;;;;;;;;;;;;;;;;5057073;28;19916;-77
2021/11/15 09:13:40;;;;;;;;;;;;;;;;;;5056837;28;20231;-77
2021/11/15 09:16:06;;;;;;;;;;;;;;;;;;5063629;28;19979;-79
2021/11/15 09:18:32;;;;;;;;;;;;;;;;;;5060077;28;20389;-78
2021/11/15 09:20:57;;;;;;;;;;;;;;;;;;5059077;28;19912;-78
2021/11/15 09:23:23;;;;;;;;;;;;;;;;;;5059933;28;19919;-78
2021/11/15 09:25:48;;;;;;;;;;;;;;;;;;5058763;28;19912;-77
2021/11/15 09:28:14;;;;;;;;;;;;;;;;;;5059298;28;19952;-77
2021/11/15 09:30:40;;;;;;;;;;;;;;;;;;5058917;28;19919;-78
2021/11/15 09:33:06;;;;;;;;;;;;;;;;;;5058114;28;19913;-77
2021/11/15 09:35:32;;;;;;;;;;;;;;;;;;5057927;28;19986;-77
2021/11/15 09:37:58;;;;;;;;;;;;;;;;;;5058195;28;19999;-78
2021/11/15 09:40:23;;;;;;;;;;;;;;;;;;5058066;28;19913;-77
2021/11/15 09:42:50;;;;;;;;;;;;;;;;;;5057911;28;19913;-78
2021/11/15 09:45:17;;;;;;;;;;;;;;;;;;5058434;28;20302;-78
2021/11/15 09:47:42;;;;;;;;;;;;;;;;;;5058696;28;19974;-77
2021/11/15 09:50:09;;;;;;;;;;;;;;;;;;5058213;28;19916;-78
2021/11/15 09:52:35;;;;;;;;;;;;;;;;;;5057742;28;20011;-77
2021/11/15 09:55:03;;;;;;;;;;;;;;;;;;5057449;28;20007;-78
2021/11/15 09:57:28;;;;;;;;;;;;;;;;;;5059524;28;20362;-77
2021/11/15 09:59:53;;;;;;;;;;;;;;;;;;5060617;28;19913;-77
2021/11/15 10:02:18;;;;;;;;;;;;;;;;;;5053866;28;19920;-78
2021/11/15 10:04:44;;;;;;;;;;;;;;;;;;5054972;28;19916;-77
2021/11/15 10:07:09;;;;;;;;;;;;;;;;;;5055672;28;19913;-78
2021/11/15 10:09:37;;;;;;;;;;;;;;;;;;5057407;28;20358;-77
2021/11/15 10:12:08;;;;;;;;;;;;;;;;;;5056878;28;20011;-76
2021/11/15 10:14:33;;;;;;;;;;;;;;;;;;5056487;28;19920;-77
2021/11/15 10:17:01;;;;;;;;;;;;;;;;;;5057175;28;19935;-75
2021/11/15 10:19:27;;;;;;;;;;;;;;;;;;5055940;28;19916;-76
2021/11/15 10:21:54;;;;;;;;;;;;;;;;;;5055687;28;19912;-76
2021/11/15 10:24:22;;;;;;;;;;;;;;;;;;5055601;28;20378;-75
2021/11/15 10:26:51;;;;;;;;;;;;;;;;;;5056638;28;19913;-75
2021/11/15 10:29:31;;;;;;;;;;;;;;;;;;5055856;28;19924;-77
2021/11/15 10:32:01;;;;;;;;;;;;;;;;;;5055552;28;19923;-77
2021/11/15 10:34:32;;;;;;;;;;;;;;;;;;5058911;28;20027;-78
2021/11/15 10:36:59;;;;;;;;;;;;;;;;;;5064682;28;19912;-78
2021/11/15 10:39:28;;;;;;;;;;;;;;;;;;5060249;28;19923;-79
2021/11/15 10:42:01;;;;;;;;;;;;;;;;;;5056058;28;19913;-76
2021/11/15 10:44:26;;;;;;;;;;;;;;;;;;5055983;28;20135;-76
2021/11/15 10:46:52;;;;;;;;;;;;;;;;;;5056719;28;19913;-76
2021/11/15 10:49:19;;;;;;;;;;;;;;;;;;5056149;28;20325;-76
2021/11/15 10:51:48;;;;;;;;;;;;;;;;;;5055764;28;19920;-75
2021/11/15 10:54:44;;;;;;;;;;;;;;;;;;5055546;28;19963;-76
2021/11/15 10:57:17;;;;;;;;;;;;;;;;;;5051985;28;20401;-76
2021/11/15 10:59:42;;;;;;;;;;;;;;;;;;5055780;28;19959;-75
2021/11/15 11:02:24;;;;;;;;;;;;;;;;;;5055264;28;19913;-76
2021/11/15 11:05:09;;;;;;;;;;;;;;;;;;5055000;28;19913;-75
2021/11/15 11:07:36;;;;;;;;;;;;;;;;;;5054919;28;19963;-74
2021/11/15 11:10:04;;;;;;;;;;;;;;;;;;5040256;28;20319;-77
2021/11/15 11:12:34;;;;;;;;;;;;;;;;;;5033595;28;19936;-73
2021/11/15 11:15:20;;;;;;;;;;;;;;;;;;5035267;28;19929;-75
2021/11/15 11:17:56;;;;;;;;;;;;;;;;;;5034685;28;20270;-77
2021/11/15 11:20:31;;;;;;;;;;;;;;;;;;5036975;28;19967;-77
2021/11/15 11:26:10;;;;;;;;;;;;;;;;;;5040667;28;20361;-75
2021/11/15 11:28:36;;;;;;;;;;;;;;;;;;5040012;28;19968;-75
2021/11/15 11:31:03;;;;;;;;;;;;;;;;;;5035029;28;20338;-75
2021/11/15 11:33:30;;;;;;;;;;;;;;;;;;5036176;28;19913;-76
2021/11/15 11:35:57;;;;;;;;;;;;;;;;;;5036252;28;19912;-77
2021/11/15 11:38:22;;;;;;;;;;;;;;;;;;5035637;28;19974;-76
2021/11/15 11:40:49;;;;;;;;;;;;;;;;;;5053191;28;19916;-77
2021/11/15 11:43:15;;;;;;;;;;;;;;;;;;5057924;28;20312;-78
2021/11/15 11:45:41;;;;;;;;;;;;;;;;;;5058479;28;19913;-79
2021/11/15 11:48:07;;;;;;;;;;;;;;;;;;5061404;28;20392;-77
2021/11/15 11:50:33;;;;;;;;;;;;;;;;;;5056086;28;19913;-75
2021/11/15 11:53:05;;;;;;;;;;;;;;;;;;5054208;28;19912;-77
2021/11/15 11:55:33;;;;;;;;;;;;;;;;;;5052828;28;19917;-76
2021/11/15 11:58:17;;;;;;;;;;;;;;;;;;5054291;28;19912;-76
2021/11/15 12:00:44;;;;;;;;;;;;;;;;;;5054067;28;19916;-76
2021/11/15 12:03:10;;;;;;;;;;;;;;;;;;5052976;28;19958;-76
2021/11/15 12:05:35;;;;;;;;;;;;;;;;;;5053981;28;19917;-75
2021/11/15 12:08:02;;;;;;;;;;;;;;;;;;5053897;28;20274;-75
2021/11/15 12:10:34;;;;;;;;;;;;;;;;;;5054236;28;19912;-75
2021/11/15 12:13:00;;;;;;;;;;;;;;;;;;5054393;28;19920;-75
2021/11/15 12:15:43;;;;;;;;;;;;;;;;;;5054323;28;20054;-75
2021/11/15 12:18:11;;;;;;;;;;;;;;;;;;5054254;28;19920;-74
2021/11/15 12:20:55;;;;;;;;;;;;;;;;;;5054216;28;19965;-75
2021/11/15 12:23:20;;;;;;;;;;;;;;;;;;5052007;28;19920;-75
2021/11/15 12:25:59;;;;;;;;;;;;;;;;;;5054235;28;19912;-75
2021/11/15 12:28:29;;;;;;;;;;;;;;;;;;5053913;28;20314;-75
2021/11/15 12:30:56;;;;;;;;;;;;;;;;;;5054042;28;19939;-74
2021/11/15 12:33:23;;;;;;;;;;;;;;;;;;5053216;28;20343;-75
2021/11/15 12:35:57;;;;;;;;;;;;;;;;;;5053233;28;19971;-75
2021/11/15 12:38:37;;;;;;;;;;;;;;;;;;5053621;28;19912;-74
2021/11/15 12:41:03;;;;;;;;;;;;;;;;;;5053850;28;19912;-74
2021/11/15 12:43:29;;;;;;;;;;;;;;;;;;5053562;28;19961;-75
2021/11/15 12:46:06;;;;;;;;;;;;;;;;;;5053831;28;20007;-75
2021/11/15 12:48:40;;;;;;;;;;;;;;;;;;5053883;28;19963;-75
2021/11/15 12:51:09;;;;;;;;;;;;;;;;;;5053872;28;19956;-75
2021/11/15 12:53:36;;;;;;;;;;;;;;;;;;5052637;28;19923;-75
2021/11/15 12:56:01;;;;;;;;;;;;;;;;;;5052788;28;19920;-75
2021/11/15 12:58:26;;;;;;;;;;;;;;;;;;5054074;28;20355;-75
2021/11/15 13:00:51;;;;;;;;;;;;;;;;;;5053895;28;19912;-75
2021/11/15 13:03:17;;;;;;;;;;;;;;;;;;5054085;28;19913;-75
2021/11/15 13:05:42;;;;;;;;;;;;;;;;;;5054037;28;19920;-75
2021/11/15 13:08:12;;;;;;;;;;;;;;;;;;5053729;28;19913;-75
2021/11/15 13:10:38;;;;;;;;;;;;;;;;;;5054013;28;20009;-75
2021/11/15 13:13:04;;;;;;;;;;;;;;;;;;5053091;28;20020;-75
2021/11/15 13:15:29;;;;;;;;;;;;;;;;;;5053610;28;20358;-75
2021/11/15 13:17:56;;;;;;;;;;;;;;;;;;5053920;28;19912;-75
2021/11/15 13:20:22;;;;;;;;;;;;;;;;;;5053789;28;19939;-75
2021/11/15 13:22:48;;;;;;;;;;;;;;;;;;5053761;28;19913;-75
2021/11/15 13:25:14;;;;;;;;;;;;;;;;;;5053848;28;20235;-75
2021/11/15 13:27:40;;;;;;;;;;;;;;;;;;5053588;28;19966;-75
2021/11/15 13:30:10;;;;;;;;;;;;;;;;;;5053558;28;19916;-75
2021/11/15 13:32:35;;;;;;;;;;;;;;;;;;5053760;28;19958;-75
2021/11/15 13:35:00;;;;;;;;;;;;;;;;;;5056593;28;19920;-74
2021/11/15 13:37:26;;;;;;;;;;;;;;;;;;5057466;28;19948;-75
2021/11/15 13:39:53;;;;;;;;;;;;;;;;;;5057175;28;19920;-75
2021/11/15 13:42:18;;;;;;;;;;;;;;;;;;5056351;28;19912;-76
2021/11/15 13:44:44;;;;;;;;;;;;;;;;;;5055865;28;20007;-74
2021/11/15 13:47:10;;;;;;;;;;;;;;;;;;5056562;28;19943;-74
2021/11/15 13:49:36;;;;;;;;;;;;;;;;;;5052104;28;19962;-75
2021/11/15 13:52:03;;;;;;;;;;;;;;;;;;5046650;28;19995;-75
2021/11/15 13:54:28;;;;;;;;;;;;;;;;;;5045089;28;19924;-74
2021/11/15 13:56:54;;;;;;;;;;;;;;;;;;5046639;28;19913;-75
2021/11/15 13:59:19;;;;;;;;;;;;;;;;;;5055906;28;20013;-75
2021/11/15 14:01:45;;;;;;;;;;;;;;;;;;5038448;28;19919;-74
2021/11/15 14:04:10;;;;;;;;;;;;;;;;;;5055983;28;19913;-74
2021/11/15 14:06:36;;;;;;;;;;;;;;;;;;5055759;28;19923;-75
2021/11/15 14:09:02;;;;;;;;;;;;;;;;;;5055972;28;20350;-75
2021/11/15 14:11:29;;;;;;;;;;;;;;;;;;5054790;28;20259;-75
2021/11/15 14:13:54;;;;;;;;;;;;;;;;;;5055326;28;20375;-76
2021/11/15 14:16:20;;;;;;;;;;;;;;;;;;5050573;28;19923;-75
2021/11/15 14:18:45;;;;;;;;;;;;;;;;;;5055410;28;19913;-77
2021/11/15 14:21:10;;;;;;;;;;;;;;;;;;5058367;28;19913;-79
2021/11/15 14:23:36;;;;;;;;;;;;;;;;;;5060164;28;20038;-77
2021/11/15 14:26:01;;;;;;;;;;;;;;;;;;5058793;28;19919;-78
2021/11/15 14:28:27;;;;;;;;;;;;;;;;;;5059570;28;19965;-79
2021/11/15 14:30:52;;;;;;;;;;;;;;;;;;5059817;28;20347;-79
2021/11/15 14:33:18;;;;;;;;;;;;;;;;;;5057110;28;19920;-76
2021/11/15 14:35:45;;;;;;;;;;;;;;;;;;5056478;28;19924;-78
2021/11/15 14:38:10;;;;;;;;;;;;;;;;;;5056851;28;20317;-77
2021/11/15 14:40:36;;;;;;;;;;;;;;;;;;5062683;28;19931;-79
2021/11/15 14:43:01;;;;;;;;;;;;;;;;;;5063880;28;19923;-78
2021/11/15 14:45:27;;;;;;;;;;;;;;;;;;5058174;28;19955;-79
2021/11/15 14:47:52;;;;;;;;;;;;;;;;;;5054567;28;19919;-79
2021/11/15 14:50:18;;;;;;;;;;;;;;;;;;5051406;28;19948;-78
2021/11/15 14:52:43;;;;;;;;;;;;;;;;;;5039550;28;19920;-77
2021/11/15 14:55:11;;;;;;;;;;;;;;;;;;5046418;28;19916;-80
2021/11/15 14:57:37;;;;;;;;;;;;;;;;;;5053564;28;19995;-77
2021/11/15 15:00:03;;;;;;;;;;;;;;;;;;5043447;28;19919;-78
2021/11/15 15:02:29;;;;;;;;;;;;;;;;;;5056260;28;19916;-78
2021/11/15 15:04:54;;;;;;;;;;;;;;;;;;5057321;28;20284;-77
2021/11/15 15:07:19;;;;;;;;;;;;;;;;;;5074529;28;19916;-78
2021/11/15 15:09:45;;;;;;;;;;;;;;;;;;5064811;28;19913;-78
2021/11/15 15:12:13;;;;;;;;;;;;;;;;;;5057381;28;20007;-80
2021/11/15 15:14:39;;;;;;;;;;;;;;;;;;5057118;28;20359;-80
2021/11/15 15:17:07;;;;;;;;;;;;;;;;;;5057326;28;19920;-81
2021/11/15 15:19:36;;;;;;;;;;;;;;;;;;5056464;28;19920;-80
2021/11/15 15:22:01;;;;;;;;;;;;;;;;;;5056015;28;19913;-80
2021/11/15 15:24:27;;;;;;;;;;;;;;;;;;5055350;28;19916;-80
2021/11/15 15:26:53;;;;;;;;;;;;;;;;;;5056023;28;19966;-80
2021/11/15 15:29:19;;;;;;;;;;;;;;;;;;5053893;28;19999;-80
2021/11/15 15:31:45;;;;;;;;;;;;;;;;;;5055722;28;19913;-80
2021/11/15 15:34:10;;;;;;;;;;;;;;;;;;5055784;28;20294;-80
2021/11/15 15:36:36;;;;;;;;;;;;;;;;;;5053645;28;20305;-80
2021/11/15 15:39:02;;;;;;;;;;;;;;;;;;5037737;28;19913;-80
2021/11/15 15:41:30;;;;;;;;;;;;;;;;;;5038830;28;19913;-80
2021/11/15 15:43:55;;;;;;;;;;;;;;;;;;5058108;28;20301;-80
2021/11/15 15:46:22;;;;;;;;;;;;;;;;;;5068405;28;20432;-80
2021/11/15 15:48:50;;;;;;;;;;;;;;;;;;5076915;28;20003;-80
2021/11/15 15:51:20;;;;;;;;;;;;;;;;;;5075347;28;19912;-80
2021/11/15 15:53:47;;;;;;;;;;;;;;;;;;5076413;28;19912;-80
2021/11/15 15:56:12;;;;;;;;;;;;;;;;;;5074957;28;19916;-80
2021/11/15 15:58:38;;;;;;;;;;;;;;;;;;5057693;28;19912;-80
2021/11/15 16:01:04;;;;;;;;;;;;;;;;;;5057738;28;20003;-80
2021/11/15 16:03:37;;;;;;;;;;;;;;;;;;5055929;28;19912;-80
2021/11/15 16:06:09;;;;;;;;;;;;;;;;;;5056239;28;19958;-80
2021/11/15 16:16:45;;;;;;;;;;;;;;;;;;5077890;28;19920;-80
2021/11/15 16:19:10;;;;;;;;;;;;;;;;;;5076881;28;19912;-80
2021/11/15 16:21:36;;;;;;;;;;;;;;;;;;5077996;28;19908;-80
2021/11/15 16:24:03;;;;;;;;;;;;;;;;;;5077881;28;19916;-80
2021/11/15 16:26:32;;;;;;;;;;;;;;;;;;5077757;28;19919;-80
2021/11/15 16:28:57;;;;;;;;;;;;;;;;;;5074228;28;19973;-77
2021/11/15 16:31:23;;;;;;;;;;;;;;;;;;5073609;28;20329;-76
2021/11/15 16:33:49;;;;;;;;;;;;;;;;;;5073980;28;20007;-76
2021/11/15 16:36:15;;;;;;;;;;;;;;;;;;5072370;28;19967;-76
2021/11/15 16:38:40;;;;;;;;;;;;;;;;;;5066103;28;19963;-76
2021/11/15 16:41:06;;;;;;;;;;;;;;;;;;5053124;28;19920;-78
2021/11/15 16:43:31;;;;;;;;;;;;;;;;;;5055150;28;19917;-79
2021/11/15 16:45:57;;;;;;;;;;;;;;;;;;5055549;28;19912;-78
2021/11/15 16:48:22;;;;;;;;;;;;;;;;;;5055408;28;19912;-77
2021/11/15 16:50:50;;;;;;;;;;;;;;;;;;5054772;28;19935;-78
2021/11/15 16:53:16;;;;;;;;;;;;;;;;;;5052374;28;19913;-75